sensor_id;sensor_type;location;lat;lon;timestamp;pressure;altitude;pressure_sealevel;temperature;humidity
60319;BME280;46163;52.306;5.634;2023-07-13T00:00:12;101200.94;;;16.01;74.16
60319;BME280;46163;52.306;5.634;2023-07-13T00:02:41;101196.47;;;15.95;73.99
60319;BME280;46163;52.306;5.634;2023-07-13T00:05:06;101207.78;;;15.97;73.86
60319;BME280;46163;52.306;5.634;2023-07-13T00:07:35;101205.50;;;16.01;74.23
60319;BME280;46163;52.306;5.634;2023-07-13T00:12:36;101212.94;;;15.99;73.97
60319;BME280;46163;52.306;5.634;2023-07-13T00:17:27;101204.41;;;15.90;74.29
60319;BME280;46163;52.306;5.634;2023-07-13T00:19:55;101204.47;;;15.83;74.88
60319;BME280;46163;52.306;5.634;2023-07-13T00:24:46;101159.41;;;15.55;75.15
60319;BME280;46163;52.306;5.634;2023-07-13T00:27:12;101206.56;;;15.81;76.06
60319;BME280;46163;52.306;5.634;2023-07-13T00:29:40;101205.28;;;15.84;75.29
60319;BME280;46163;52.306;5.634;2023-07-13T00:32:08;101205.53;;;15.82;74.93
60319;BME280;46163;52.306;5.634;2023-07-13T00:34:35;101200.97;;;15.83;75.41
60319;BME280;46163;52.306;5.634;2023-07-13T00:37:00;101205.13;;;15.79;75.86
60319;BME280;46163;52.306;5.634;2023-07-13T00:39:28;101215.88;;;15.79;75.88
60319;BME280;46163;52.306;5.634;2023-07-13T00:41:53;101209.56;;;15.73;75.88
60319;BME280;46163;52.306;5.634;2023-07-13T00:46:46;101204.03;;;15.68;76.70
60319;BME280;46163;52.306;5.634;2023-07-13T00:49:17;101209.09;;;15.76;76.25
60319;BME280;46163;52.306;5.634;2023-07-13T00:51:49;101198.13;;;15.78;76.14
60319;BME280;46163;52.306;5.634;2023-07-13T00:56:49;101193.91;;;15.70;76.35
60319;BME280;46163;52.306;5.634;2023-07-13T00:59:16;101206.25;;;15.71;76.49
60319;BME280;46163;52.306;5.634;2023-07-13T01:04:12;101212.56;;;15.65;76.85
60319;BME280;46163;52.306;5.634;2023-07-13T01:06:39;101210.22;;;15.69;76.33
60319;BME280;46163;52.306;5.634;2023-07-13T01:09:07;101181.16;;;15.47;76.79
60319;BME280;46163;52.306;5.634;2023-07-13T01:11:33;101213.72;;;15.69;76.47
60319;BME280;46163;52.306;5.634;2023-07-13T01:14:00;101203.38;;;15.73;76.91
60319;BME280;46163;52.306;5.634;2023-07-13T01:16:30;101203.28;;;15.79;76.10
60319;BME280;46163;52.306;5.634;2023-07-13T01:18:56;101206.06;;;15.73;76.27
60319;BME280;46163;52.306;5.634;2023-07-13T01:21:29;101201.13;;;15.70;76.55
60319;BME280;46163;52.306;5.634;2023-07-13T01:23:57;101208.00;;;15.66;76.08
60319;BME280;46163;52.306;5.634;2023-07-13T01:26:28;101212.97;;;15.62;76.07
60319;BME280;46163;52.306;5.634;2023-07-13T01:28:56;101218.72;;;15.66;75.81
60319;BME280;46163;52.306;5.634;2023-07-13T01:31:28;101211.34;;;15.61;75.33
60319;BME280;46163;52.306;5.634;2023-07-13T01:33:54;101217.13;;;15.58;75.95
60319;BME280;46163;52.306;5.634;2023-07-13T01:36:20;101215.03;;;15.60;75.55
60319;BME280;46163;52.306;5.634;2023-07-13T01:38:48;101211.75;;;15.65;75.76
60319;BME280;46163;52.306;5.634;2023-07-13T01:41:14;101215.25;;;15.65;75.55
60319;BME280;46163;52.306;5.634;2023-07-13T01:43:39;101213.41;;;15.59;75.50
60319;BME280;46163;52.306;5.634;2023-07-13T01:46:05;101216.91;;;15.60;75.60
60319;BME280;46163;52.306;5.634;2023-07-13T01:48:33;101222.34;;;15.53;76.32
60319;BME280;46163;52.306;5.634;2023-07-13T01:51:00;101220.34;;;15.48;75.94
60319;BME280;46163;52.306;5.634;2023-07-13T01:53:26;101217.72;;;15.42;75.49
60319;BME280;46163;52.306;5.634;2023-07-13T01:55:51;101214.47;;;15.40;76.33
60319;BME280;46163;52.306;5.634;2023-07-13T01:58:19;101195.59;;;15.28;76.01
60319;BME280;46163;52.306;5.634;2023-07-13T02:00:49;101217.97;;;15.40;76.17
60319;BME280;46163;52.306;5.634;2023-07-13T02:03:15;101209.16;;;15.33;76.25
60319;BME280;46163;52.306;5.634;2023-07-13T02:05:44;101183.00;;;15.10;76.86
60319;BME280;46163;52.306;5.634;2023-07-13T02:08:10;101214.28;;;15.35;76.33
60319;BME280;46163;52.306;5.634;2023-07-13T02:10:37;101222.41;;;15.28;76.98
60319;BME280;46163;52.306;5.634;2023-07-13T02:18:08;101221.44;;;15.22;76.94
60319;BME280;46163;52.306;5.634;2023-07-13T02:20:33;101217.56;;;15.18;77.00
60319;BME280;46163;52.306;5.634;2023-07-13T02:25:34;101235.88;;;15.03;77.79
60319;BME280;46163;52.306;5.634;2023-07-13T02:27:59;101222.75;;;14.95;77.06
60319;BME280;46163;52.306;5.634;2023-07-13T02:30:25;101229.78;;;14.89;77.92
60319;BME280;46163;52.306;5.634;2023-07-13T02:32:53;101235.09;;;14.96;78.32
60319;BME280;46163;52.306;5.634;2023-07-13T02:35:20;101223.63;;;14.89;78.23
60319;BME280;46163;52.306;5.634;2023-07-13T02:37:48;101218.75;;;14.79;77.89
60319;BME280;46163;52.306;5.634;2023-07-13T02:40:14;101233.13;;;14.85;78.02
60319;BME280;46163;52.306;5.634;2023-07-13T02:42:39;101215.09;;;14.74;78.67
60319;BME280;46163;52.306;5.634;2023-07-13T02:45:07;101176.94;;;14.53;78.38
60319;BME280;46163;52.306;5.634;2023-07-13T02:47:36;101231.75;;;14.76;78.56
60319;BME280;46163;52.306;5.634;2023-07-13T02:52:29;101214.31;;;14.66;77.94
60319;BME280;46163;52.306;5.634;2023-07-13T02:54:57;101243.72;;;14.73;78.86
60319;BME280;46163;52.306;5.634;2023-07-13T02:57:25;101146.50;;;14.16;78.73
60319;BME280;46163;52.306;5.634;2023-07-13T02:59:54;101239.66;;;14.70;79.04
60319;BME280;46163;52.306;5.634;2023-07-13T03:04:50;101234.09;;;14.65;78.70
60319;BME280;46163;52.306;5.634;2023-07-13T03:07:15;101246.41;;;14.73;78.90
60319;BME280;46163;52.306;5.634;2023-07-13T03:14:50;101248.31;;;14.66;79.70
60319;BME280;46163;52.306;5.634;2023-07-13T03:17:15;101248.91;;;14.68;79.42
60319;BME280;46163;52.306;5.634;2023-07-13T03:22:09;101253.53;;;14.61;79.59
60319;BME280;46163;52.306;5.634;2023-07-13T03:24:34;101257.25;;;14.60;79.93
60319;BME280;46163;52.306;5.634;2023-07-13T03:29:28;101225.19;;;14.40;79.94
60319;BME280;46163;52.306;5.634;2023-07-13T03:31:54;101245.56;;;14.48;80.47
60319;BME280;46163;52.306;5.634;2023-07-13T03:34:19;101249.88;;;14.49;80.36
60319;BME280;46163;52.306;5.634;2023-07-13T03:36:47;101258.53;;;14.44;80.60
60319;BME280;46163;52.306;5.634;2023-07-13T03:39:12;101256.09;;;14.42;80.30
60319;BME280;46163;52.306;5.634;2023-07-13T03:41:41;101269.47;;;14.42;81.05
60319;BME280;46163;52.306;5.634;2023-07-13T03:44:08;101270.31;;;14.43;81.02
60319;BME280;46163;52.306;5.634;2023-07-13T03:46:36;101276.47;;;14.43;81.32
60319;BME280;46163;52.306;5.634;2023-07-13T03:51:30;101277.91;;;14.46;81.19
60319;BME280;46163;52.306;5.634;2023-07-13T03:53:56;101279.34;;;14.42;81.34
60319;BME280;46163;52.306;5.634;2023-07-13T03:58:50;101270.72;;;14.40;82.05
60319;BME280;46163;52.306;5.634;2023-07-13T04:01:19;101272.19;;;14.36;81.82
60319;BME280;46163;52.306;5.634;2023-07-13T04:03:45;101273.59;;;14.38;81.89
60319;BME280;46163;52.306;5.634;2023-07-13T04:06:20;101277.28;;;14.44;81.94
60319;BME280;46163;52.306;5.634;2023-07-13T04:08:50;101289.84;;;14.50;81.71
60319;BME280;46163;52.306;5.634;2023-07-13T04:11:18;101287.38;;;14.42;82.09
60319;BME280;46163;52.306;5.634;2023-07-13T04:13:45;101241.41;;;14.13;82.50
60319;BME280;46163;52.306;5.634;2023-07-13T04:16:17;101280.22;;;14.36;82.62
60319;BME280;46163;52.306;5.634;2023-07-13T04:21:17;101288.06;;;14.31;82.98
60319;BME280;46163;52.306;5.634;2023-07-13T04:26:11;101298.38;;;14.34;82.89
60319;BME280;46163;52.306;5.634;2023-07-13T04:28:38;101296.88;;;14.38;83.38
60319;BME280;46163;52.306;5.634;2023-07-13T04:31:04;101299.75;;;14.43;82.20
60319;BME280;46163;52.306;5.634;2023-07-13T04:33:32;101298.72;;;14.44;83.18
60319;BME280;46163;52.306;5.634;2023-07-13T04:35:59;101295.63;;;14.47;82.38
60319;BME280;46163;52.306;5.634;2023-07-13T04:38:29;101301.81;;;14.48;83.05
60319;BME280;46163;52.306;5.634;2023-07-13T04:40:56;101295.59;;;14.54;82.83
60319;BME280;46163;52.306;5.634;2023-07-13T04:43:24;101303.63;;;14.54;82.47
60319;BME280;46163;52.306;5.634;2023-07-13T04:45:53;101297.41;;;14.60;83.35
60319;BME280;46163;52.306;5.634;2023-07-13T04:48:19;101299.06;;;14.61;83.18
60319;BME280;46163;52.306;5.634;2023-07-13T04:50:46;101296.00;;;14.51;83.24
60319;BME280;46163;52.306;5.634;2023-07-13T04:53:12;101303.97;;;14.64;83.44
60319;BME280;46163;52.306;5.634;2023-07-13T04:55:37;101307.47;;;14.64;83.54
60319;BME280;46163;52.306;5.634;2023-07-13T04:58:05;101255.31;;;14.35;83.57
60319;BME280;46163;52.306;5.634;2023-07-13T05:00:30;101308.22;;;14.78;83.39
60319;BME280;46163;52.306;5.634;2023-07-13T05:02:58;101295.47;;;14.74;83.61
60319;BME280;46163;52.306;5.634;2023-07-13T05:07:59;101319.50;;;14.87;83.78
60319;BME280;46163;52.306;5.634;2023-07-13T05:10:27;101312.00;;;14.95;83.59
60319;BME280;46163;52.306;5.634;2023-07-13T05:12:52;101318.13;;;15.03;83.27
60319;BME280;46163;52.306;5.634;2023-07-13T05:15:21;101310.53;;;14.99;83.61
60319;BME280;46163;52.306;5.634;2023-07-13T05:17:48;101316.44;;;15.08;83.52
60319;BME280;46163;52.306;5.634;2023-07-13T05:20:14;101321.97;;;15.13;83.12
60319;BME280;46163;52.306;5.634;2023-07-13T05:22:40;101301.72;;;15.17;82.75
60319;BME280;46163;52.306;5.634;2023-07-13T05:25:09;101318.28;;;15.33;82.29
60319;BME280;46163;52.306;5.634;2023-07-13T05:27:35;101333.97;;;15.54;82.43
60319;BME280;46163;52.306;5.634;2023-07-13T05:30:02;101307.50;;;15.39;81.53
60319;BME280;46163;52.306;5.634;2023-07-13T05:32:30;101339.56;;;15.77;81.18
60319;BME280;46163;52.306;5.634;2023-07-13T05:34:55;101341.19;;;15.78;81.56
60319;BME280;46163;52.306;5.634;2023-07-13T05:37:23;101337.84;;;15.83;80.95
60319;BME280;46163;52.306;5.634;2023-07-13T05:39:48;101343.81;;;15.85;80.92
60319;BME280;46163;52.306;5.634;2023-07-13T05:42:14;101336.94;;;15.89;80.60
60319;BME280;46163;52.306;5.634;2023-07-13T05:44:41;101347.59;;;15.96;81.01
60319;BME280;46163;52.306;5.634;2023-07-13T05:47:07;101342.09;;;16.09;80.93
60319;BME280;46163;52.306;5.634;2023-07-13T05:49:32;101345.00;;;16.07;80.44
60319;BME280;46163;52.306;5.634;2023-07-13T05:54:26;101357.53;;;16.14;80.46
60319;BME280;46163;52.306;5.634;2023-07-13T05:56:52;101338.00;;;16.25;79.84
60319;BME280;46163;52.306;5.634;2023-07-13T05:59:21;101330.13;;;16.23;80.08
60319;BME280;46163;52.306;5.634;2023-07-13T06:01:46;101353.88;;;16.26;80.37
60319;BME280;46163;52.306;5.634;2023-07-13T06:04:12;101352.44;;;16.42;79.75
60319;BME280;46163;52.306;5.634;2023-07-13T06:09:04;101364.41;;;16.58;80.13
60319;BME280;46163;52.306;5.634;2023-07-13T06:11:32;101360.53;;;16.54;79.34
60319;BME280;46163;52.306;5.634;2023-07-13T06:14:00;101365.38;;;16.63;79.73
60319;BME280;46163;52.306;5.634;2023-07-13T06:16:25;101366.53;;;16.67;79.31
60319;BME280;46163;52.306;5.634;2023-07-13T06:18:51;101372.25;;;16.78;78.91
60319;BME280;46163;52.306;5.634;2023-07-13T06:23:46;101370.31;;;17.08;78.46
60319;BME280;46163;52.306;5.634;2023-07-13T06:26:16;101368.94;;;17.17;77.86
60319;BME280;46163;52.306;5.634;2023-07-13T06:28:41;101370.81;;;17.17;77.97
60319;BME280;46163;52.306;5.634;2023-07-13T06:31:12;101367.91;;;17.30;77.33
60319;BME280;46163;52.306;5.634;2023-07-13T06:36:08;101381.94;;;17.44;77.09
60319;BME280;46163;52.306;5.634;2023-07-13T06:41:08;101385.69;;;17.31;77.29
60319;BME280;46163;52.306;5.634;2023-07-13T06:46:01;101363.16;;;17.02;77.66
60319;BME280;46163;52.306;5.634;2023-07-13T06:48:30;101385.78;;;17.13;78.09
60319;BME280;46163;52.306;5.634;2023-07-13T06:53:22;101379.84;;;17.34;77.68
60319;BME280;46163;52.306;5.634;2023-07-13T06:55:50;101384.75;;;17.37;77.08
60319;BME280;46163;52.306;5.634;2023-07-13T06:58:21;101385.34;;;17.39;77.36
60319;BME280;46163;52.306;5.634;2023-07-13T07:00:50;101392.22;;;17.35;77.65
60319;BME280;46163;52.306;5.634;2023-07-13T07:05:41;101387.81;;;18.11;75.35
60319;BME280;46163;52.306;5.634;2023-07-13T07:08:07;101382.09;;;18.48;74.06
60319;BME280;46163;52.306;5.634;2023-07-13T07:10:33;101387.31;;;18.66;72.71
60319;BME280;46163;52.306;5.634;2023-07-13T07:15:26;101393.75;;;18.77;72.25
60319;BME280;46163;52.306;5.634;2023-07-13T07:17:53;101390.97;;;19.67;68.61
60319;BME280;46163;52.306;5.634;2023-07-13T07:20:20;101395.13;;;20.84;64.31
60319;BME280;46163;52.306;5.634;2023-07-13T07:22:46;101383.38;;;21.28;62.22
60319;BME280;46163;52.306;5.634;2023-07-13T07:25:14;101383.47;;;21.75;60.12
60319;BME280;46163;52.306;5.634;2023-07-13T07:27:39;101305.97;;;21.74;58.84
60319;BME280;46163;52.306;5.634;2023-07-13T07:30:05;101378.91;;;24.16;54.75
60319;BME280;46163;52.306;5.634;2023-07-13T07:32:33;101378.47;;;23.53;54.62
60319;BME280;46163;52.306;5.634;2023-07-13T07:34:58;101387.75;;;23.37;55.80
60319;BME280;46163;52.306;5.634;2023-07-13T07:37:24;101375.97;;;21.50;60.10
60319;BME280;46163;52.306;5.634;2023-07-13T07:39:50;101378.06;;;21.38;61.00
60319;BME280;46163;52.306;5.634;2023-07-13T07:44:52;101401.53;;;20.08;65.17
60319;BME280;46163;52.306;5.634;2023-07-13T07:47:18;101408.19;;;20.00;67.86
60319;BME280;46163;52.306;5.634;2023-07-13T07:49:45;101393.56;;;19.29;69.81
60319;BME280;46163;52.306;5.634;2023-07-13T07:52:11;101409.22;;;18.98;72.44
60319;BME280;46163;52.306;5.634;2023-07-13T07:54:38;101415.25;;;18.48;75.45
60319;BME280;46163;52.306;5.634;2023-07-13T07:57:05;101385.56;;;18.20;76.20
60319;BME280;46163;52.306;5.634;2023-07-13T07:59:31;101403.13;;;18.22;77.09
60319;BME280;46163;52.306;5.634;2023-07-13T08:01:56;101399.53;;;18.05;76.28
60319;BME280;46163;52.306;5.634;2023-07-13T08:06:47;101407.38;;;17.95;76.16
60319;BME280;46163;52.306;5.634;2023-07-13T08:09:12;101408.47;;;18.46;76.19
60319;BME280;46163;52.306;5.634;2023-07-13T08:11:38;101410.28;;;18.97;73.64
60319;BME280;46163;52.306;5.634;2023-07-13T08:16:30;101401.66;;;20.40;66.31
60319;BME280;46163;52.306;5.634;2023-07-13T08:18:58;101398.78;;;22.59;59.19
60319;BME280;46163;52.306;5.634;2023-07-13T08:21:25;101404.13;;;24.37;57.24
60319;BME280;46163;52.306;5.634;2023-07-13T08:23:53;101390.16;;;24.98;53.18
60319;BME280;46163;52.306;5.634;2023-07-13T08:26:18;101405.09;;;27.02;48.27
60319;BME280;46163;52.306;5.634;2023-07-13T08:28:46;101398.81;;;27.67;47.34
60319;BME280;46163;52.306;5.634;2023-07-13T08:31:12;101401.78;;;27.06;46.02
60319;BME280;46163;52.306;5.634;2023-07-13T08:33:39;101400.16;;;27.37;46.44
60319;BME280;46163;52.306;5.634;2023-07-13T08:36:06;101402.97;;;28.97;44.41
60319;BME280;46163;52.306;5.634;2023-07-13T08:38:36;101396.91;;;28.36;44.22
60319;BME280;46163;52.306;5.634;2023-07-13T08:41:15;101399.84;;;27.06;46.93
60319;BME280;46163;52.306;5.634;2023-07-13T08:43:47;101399.13;;;27.33;44.36
60319;BME280;46163;52.306;5.634;2023-07-13T08:48:54;101403.25;;;24.91;48.33
60319;BME280;46163;52.306;5.634;2023-07-13T08:54:09;101397.75;;;24.57;50.64
60319;BME280;46163;52.306;5.634;2023-07-13T08:56:37;101396.53;;;25.52;47.93
60319;BME280;46163;52.306;5.634;2023-07-13T08:59:10;101405.59;;;25.47;49.55
60319;BME280;46163;52.306;5.634;2023-07-13T09:04:36;101409.56;;;25.26;48.75
60319;BME280;46163;52.306;5.634;2023-07-13T09:10:12;101420.78;;;22.83;54.48
60319;BME280;46163;52.306;5.634;2023-07-13T09:12:46;101422.94;;;24.13;53.85
60319;BME280;46163;52.306;5.634;2023-07-13T09:18:03;101423.56;;;23.80;53.40
60319;BME280;46163;52.306;5.634;2023-07-13T09:20:37;101422.50;;;23.55;51.15
60319;BME280;46163;52.306;5.634;2023-07-13T09:23:12;101430.66;;;23.50;51.76
60319;BME280;46163;52.306;5.634;2023-07-13T09:25:40;101435.22;;;22.89;54.72
60319;BME280;46163;52.306;5.634;2023-07-13T09:28:16;101422.53;;;25.00;46.79
60319;BME280;46163;52.306;5.634;2023-07-13T09:31:03;101423.69;;;26.15;45.13
60319;BME280;46163;52.306;5.634;2023-07-13T09:33:30;101415.69;;;25.47;46.27
60319;BME280;46163;52.306;5.634;2023-07-13T09:35:57;101412.94;;;25.81;44.46
60319;BME280;46163;52.306;5.634;2023-07-13T09:38:25;101419.47;;;26.04;46.20
60319;BME280;46163;52.306;5.634;2023-07-13T09:40:59;101415.41;;;23.95;48.55
60319;BME280;46163;52.306;5.634;2023-07-13T09:43:26;101424.00;;;22.65;51.80
60319;BME280;46163;52.306;5.634;2023-07-13T09:45:54;101419.94;;;25.24;47.88
60319;BME280;46163;52.306;5.634;2023-07-13T09:48:19;101429.31;;;27.74;39.98
60319;BME280;46163;52.306;5.634;2023-07-13T09:50:45;101423.75;;;28.62;39.71
60319;BME280;46163;52.306;5.634;2023-07-13T09:53:17;101429.44;;;28.38;38.28
60319;BME280;46163;52.306;5.634;2023-07-13T09:55:45;101446.69;;;28.52;38.64
60319;BME280;46163;52.306;5.634;2023-07-13T09:58:22;101449.28;;;27.88;40.43
60319;BME280;46163;52.306;5.634;2023-07-13T10:03:27;101449.88;;;27.01;42.57
60319;BME280;46163;52.306;5.634;2023-07-13T10:05:53;101447.72;;;27.69;40.69
60319;BME280;46163;52.306;5.634;2023-07-13T10:08:25;101439.06;;;27.61;41.22
60319;BME280;46163;52.306;5.634;2023-07-13T10:11:10;101444.59;;;26.01;45.85
60319;BME280;46163;52.306;5.634;2023-07-13T10:13:42;101451.47;;;25.98;45.65
60319;BME280;46163;52.306;5.634;2023-07-13T10:16:08;101450.34;;;25.36;47.65
60319;BME280;46163;52.306;5.634;2023-07-13T10:18:51;101471.03;;;25.03;48.34
60319;BME280;46163;52.306;5.634;2023-07-13T10:21:20;101476.03;;;24.75;49.09
60319;BME280;46163;52.306;5.634;2023-07-13T10:23:55;101474.28;;;25.00;48.41
60319;BME280;46163;52.306;5.634;2023-07-13T10:26:27;101455.47;;;26.72;43.81
60319;BME280;46163;52.306;5.634;2023-07-13T10:29:02;101459.84;;;27.63;41.45
60319;BME280;46163;52.306;5.634;2023-07-13T10:31:30;101460.81;;;27.72;42.45
60319;BME280;46163;52.306;5.634;2023-07-13T10:33:57;101446.94;;;26.79;40.55
60319;BME280;46163;52.306;5.634;2023-07-13T10:36:30;101458.78;;;25.74;42.74
60319;BME280;46163;52.306;5.634;2023-07-13T10:38:59;101462.88;;;25.03;45.06
60319;BME280;46163;52.306;5.634;2023-07-13T10:41:27;101465.06;;;24.96;46.13
60319;BME280;46163;52.306;5.634;2023-07-13T10:43:55;101462.84;;;25.76;45.39
60319;BME280;46163;52.306;5.634;2023-07-13T10:46:24;101478.25;;;25.57;44.02
60319;BME280;46163;52.306;5.634;2023-07-13T10:48:57;101463.75;;;25.27;46.53
60319;BME280;46163;52.306;5.634;2023-07-13T10:51:27;101471.09;;;25.66;45.38
60319;BME280;46163;52.306;5.634;2023-07-13T10:56:42;101479.25;;;24.88;47.88
60319;BME280;46163;52.306;5.634;2023-07-13T10:59:27;101480.44;;;24.71;46.84
60319;BME280;46163;52.306;5.634;2023-07-13T11:02:43;101495.81;;;24.42;48.64
60319;BME280;46163;52.306;5.634;2023-07-13T11:04:47;101493.69;;;23.93;48.15
60319;BME280;46163;52.306;5.634;2023-07-13T11:07:25;101491.00;;;23.67;49.11
60319;BME280;46163;52.306;5.634;2023-07-13T11:09:56;101488.28;;;23.73;50.78
60319;BME280;46163;52.306;5.634;2023-07-13T11:19:54;101477.94;;;23.69;51.24
60319;BME280;46163;52.306;5.634;2023-07-13T11:25:36;101492.50;;;22.97;52.87
60319;BME280;46163;52.306;5.634;2023-07-13T11:36:13;101509.84;;;21.32;55.87
60319;BME280;46163;52.306;5.634;2023-07-13T11:41:14;101499.50;;;20.58;53.96
60319;BME280;46163;52.306;5.634;2023-07-13T11:43:41;101513.88;;;20.42;53.15
60319;BME280;46163;52.306;5.634;2023-07-13T11:46:15;101502.59;;;20.45;51.85
60319;BME280;46163;52.306;5.634;2023-07-13T11:48:41;101513.88;;;20.81;50.56
60319;BME280;46163;52.306;5.634;2023-07-13T11:51:23;101512.03;;;21.35;50.35
60319;BME280;46163;52.306;5.634;2023-07-13T11:53:53;101511.41;;;21.28;50.20
60319;BME280;46163;52.306;5.634;2023-07-13T11:56:19;101518.78;;;21.11;51.71
60319;BME280;46163;52.306;5.634;2023-07-13T11:58:49;101526.06;;;21.05;53.63
60319;BME280;46163;52.306;5.634;2023-07-13T12:01:24;101517.75;;;21.12;55.01
60319;BME280;46163;52.306;5.634;2023-07-13T12:03:51;101520.41;;;21.29;54.47
60319;BME280;46163;52.306;5.634;2023-07-13T12:06:30;101507.69;;;21.34;54.51
60319;BME280;46163;52.306;5.634;2023-07-13T12:08:59;101506.00;;;21.87;55.04
60319;BME280;46163;52.306;5.634;2023-07-13T12:11:26;101498.47;;;21.94;52.95
60319;BME280;46163;52.306;5.634;2023-07-13T12:13:53;101497.53;;;22.11;53.78
60319;BME280;46163;52.306;5.634;2023-07-13T12:16:30;101492.75;;;22.28;53.88
60319;BME280;46163;52.306;5.634;2023-07-13T12:18:59;101489.38;;;22.11;54.20
60319;BME280;46163;52.306;5.634;2023-07-13T12:21:33;101506.53;;;21.84;55.67
60319;BME280;46163;52.306;5.634;2023-07-13T12:24:00;101496.81;;;21.93;54.12
60319;BME280;46163;52.306;5.634;2023-07-13T12:26:34;101507.72;;;21.98;54.52
60319;BME280;46163;52.306;5.634;2023-07-13T12:29:01;101505.72;;;21.89;51.20
60319;BME280;46163;52.306;5.634;2023-07-13T12:31:40;101504.03;;;22.15;50.88
60319;BME280;46163;52.306;5.634;2023-07-13T12:34:08;101510.53;;;22.14;51.28
60319;BME280;46163;52.306;5.634;2023-07-13T12:36:36;101521.78;;;21.95;49.79
60319;BME280;46163;52.306;5.634;2023-07-13T12:39:22;101513.50;;;21.75;50.96
60319;BME280;46163;52.306;5.634;2023-07-13T12:41:50;101521.00;;;21.68;51.17
60319;BME280;46163;52.306;5.634;2023-07-13T12:44:25;101519.84;;;21.59;52.24
60319;BME280;46163;52.306;5.634;2023-07-13T12:46:54;101511.16;;;21.89;50.41
60319;BME280;46163;52.306;5.634;2023-07-13T12:49:27;101513.13;;;21.98;50.28
60319;BME280;46163;52.306;5.634;2023-07-13T12:52:02;101517.97;;;21.91;49.64
60319;BME280;46163;52.306;5.634;2023-07-13T12:54:29;101523.94;;;21.93;50.21
60319;BME280;46163;52.306;5.634;2023-07-13T12:56:56;101510.00;;;21.80;49.38
60319;BME280;46163;52.306;5.634;2023-07-13T12:59:25;101509.97;;;21.75;49.67
60319;BME280;46163;52.306;5.634;2023-07-13T13:01:53;101513.00;;;22.15;50.82
60319;BME280;46163;52.306;5.634;2023-07-13T13:04:21;101520.78;;;22.49;49.24
60319;BME280;46163;52.306;5.634;2023-07-13T13:06:48;101507.47;;;22.42;50.03
60319;BME280;46163;52.306;5.634;2023-07-13T13:09:15;101516.41;;;22.43;50.00
60319;BME280;46163;52.306;5.634;2023-07-13T13:11:41;101516.16;;;22.44;49.57
60319;BME280;46163;52.306;5.634;2023-07-13T13:14:07;101514.75;;;22.37;49.44
60319;BME280;46163;52.306;5.634;2023-07-13T13:16:52;101503.09;;;22.36;49.55
60319;BME280;46163;52.306;5.634;2023-07-13T13:19:27;101524.16;;;22.71;49.31
60319;BME280;46163;52.306;5.634;2023-07-13T13:21:56;101532.44;;;22.49;48.40
60319;BME280;46163;52.306;5.634;2023-07-13T13:24:25;101525.59;;;22.37;50.06
60319;BME280;46163;52.306;5.634;2023-07-13T13:26:52;101529.78;;;22.12;50.11
60319;BME280;46163;52.306;5.634;2023-07-13T13:29:21;101526.81;;;22.14;50.59
60319;BME280;46163;52.306;5.634;2023-07-13T13:31:51;101530.69;;;22.28;50.50
60319;BME280;46163;52.306;5.634;2023-07-13T13:34:21;101520.06;;;22.16;50.38
60319;BME280;46163;52.306;5.634;2023-07-13T13:36:50;101520.13;;;22.26;51.11
60319;BME280;46163;52.306;5.634;2023-07-13T13:39:33;101528.09;;;22.48;49.72
60319;BME280;46163;52.306;5.634;2023-07-13T13:41:59;101528.22;;;22.21;49.66
60319;BME280;46163;52.306;5.634;2023-07-13T13:44:25;101541.50;;;22.23;51.00
60319;BME280;46163;52.306;5.634;2023-07-13T13:46:54;101526.22;;;22.07;51.76
60319;BME280;46163;52.306;5.634;2023-07-13T13:49:25;101531.94;;;22.10;49.67
60319;BME280;46163;52.306;5.634;2023-07-13T13:51:52;101540.75;;;21.95;50.44
60319;BME280;46163;52.306;5.634;2023-07-13T13:54:18;101527.06;;;22.07;50.18
60319;BME280;46163;52.306;5.634;2023-07-13T13:56:46;101521.38;;;22.14;50.93
60319;BME280;46163;52.306;5.634;2023-07-13T13:59:12;101535.00;;;22.24;51.52
60319;BME280;46163;52.306;5.634;2023-07-13T14:01:40;101543.66;;;22.21;51.29
60319;BME280;46163;52.306;5.634;2023-07-13T14:04:06;101541.00;;;22.26;50.16
60319;BME280;46163;52.306;5.634;2023-07-13T14:06:36;101506.19;;;22.08;49.87
60319;BME280;46163;52.306;5.634;2023-07-13T14:09:04;101541.00;;;22.26;50.15
60319;BME280;46163;52.306;5.634;2023-07-13T14:11:30;101537.91;;;22.54;48.40
60319;BME280;46163;52.306;5.634;2023-07-13T14:13:58;101546.28;;;22.48;50.55
60319;BME280;46163;52.306;5.634;2023-07-13T14:16:30;101525.72;;;22.62;48.53
60319;BME280;46163;52.306;5.634;2023-07-13T14:18:57;101532.66;;;22.85;49.59
60319;BME280;46163;52.306;5.634;2023-07-13T14:21:25;101537.53;;;22.88;49.49
60319;BME280;46163;52.306;5.634;2023-07-13T14:23:51;101529.19;;;23.10;48.55
60319;BME280;46163;52.306;5.634;2023-07-13T14:26:18;101540.53;;;22.87;48.13
60319;BME280;46163;52.306;5.634;2023-07-13T14:28:47;101541.47;;;22.60;48.91
60319;BME280;46163;52.306;5.634;2023-07-13T14:31:15;101539.53;;;22.50;47.95
60319;BME280;46163;52.306;5.634;2023-07-13T14:33:41;101544.16;;;22.55;48.07
60319;BME280;46163;52.306;5.634;2023-07-13T14:39:25;101546.91;;;22.60;47.88
60319;BME280;46163;52.306;5.634;2023-07-13T14:41:52;101536.66;;;22.77;48.56
60319;BME280;46163;52.306;5.634;2023-07-13T14:44:22;101549.75;;;22.86;46.97
60319;BME280;46163;52.306;5.634;2023-07-13T14:46:49;101545.59;;;22.73;47.03
60319;BME280;46163;52.306;5.634;2023-07-13T14:49:38;101550.22;;;22.77;49.52
60319;BME280;46163;52.306;5.634;2023-07-13T14:52:17;101542.69;;;22.90;47.11
60319;BME280;46163;52.306;5.634;2023-07-13T14:54:43;101539.22;;;23.04;47.57
60319;BME280;46163;52.306;5.634;2023-07-13T14:57:10;101547.34;;;22.94;46.98
60319;BME280;46163;52.306;5.634;2023-07-13T14:59:36;101540.81;;;22.90;47.56